Sea Cloud — 9HOM2 — position and weather

sailwx.info

Track history (hours):
 
Tides and Currents Weather Stations Pressure Air Temp Water Temp Dewpoint Dewpoint Depression Visibility Wind Speed Wind Dir Waves Ship Positions

Sea Cloud

Ship's website: http://www.seacloud.com/en/the-ships/sea-cloud.html

Last reported at 2017-May-25 18:52 UTC. Time now 2017-May-28 08:32 UTC.
Position N 37°19' E 023°39'.

Length 110 m; draft 5.3 m.

Type: Ship. MMSI: 256084000.

Date/timePositionNaut miles runAvg speedWind from/ knotsBaromVisibWave heightAir tempDewpointWater temp
2017-May-25 18:52N 37°19' E 023°39'410.4
2017-May-25 18:30N 37°23' E 023°40'510.3
2017-May-25 18:01N 37°28' E 023°41'5 9.6
2017-May-25 17:30N 37°33' E 023°41'5 9.6
2017-May-25 17:01N 37°37' E 023°42'5 9.3
2017-May-25 16:30N 37°42' E 023°41'5 9.4
2017-May-25 16:00N 37°46' E 023°38'5 9.3
2017-May-25 15:30N 37°50' E 023°37'5 9.3
2017-May-25 15:01N 37°55' E 023°36'2 3.6
2017-May-25 14:28N 37°56' E 023°38'0 0.0
2017-May-25 13:28N 37°56' E 023°38'0 0.0
2017-May-25 12:58N 37°56' E 023°38'0 0.0
2017-May-25 12:28N 37°56' E 023°38'0 0.0
2017-May-25 11:58N 37°56' E 023°38'0 0.0
2017-May-25 11:28N 37°56' E 023°38'0 0.0
2017-May-25 10:58N 37°56' E 023°38'0 0.0
2017-May-25 10:28N 37°56' E 023°38'0 0.0
2017-May-25 09:56N 37°56' E 023°38'0 0.0
2017-May-25 09:29N 37°56' E 023°38'0 0.0
2017-May-25 08:59N 37°56' E 023°38'0 0.0
2017-May-25 08:29N 37°56' E 023°38'0 0.0
2017-May-25 07:58N 37°56' E 023°38'0 0.0
2017-May-25 07:29N 37°56' E 023°38'0 0.0
2017-May-25 06:59N 37°56' E 023°38'0 0.0
2017-May-25 06:30N 37°56' E 023°38'0 0.0
2017-May-25 05:59N 37°56' E 023°38'0 0.0
2017-May-25 05:29N 37°56' E 023°38'0 0.0
2017-May-25 04:59N 37°56' E 023°38'0 0.0
2017-May-25 04:29N 37°56' E 023°38'0 0.0
2017-May-25 04:00N 37°56' E 023°38'2 3.1
2017-May-25 03:30N 37°55' E 023°37'2 3.8
2017-May-25 03:00N 37°53' E 023°37'2 4.5
2017-May-25 02:30N 37°52' E 023°39'3 6.3
2017-May-25 02:00N 37°49' E 023°41'3 6.8
2017-May-25 01:30N 37°46' E 023°42'3 6.4
2017-May-25 01:00N 37°43' E 023°44'3 6.7
2017-May-25 00:30N 37°40' E 023°46'3 6.8
2017-May-25 00:00N 37°36' E 023°46'3 6.8
2017-May-24 23:30N 37°33' E 023°46'4 6.7
2017-May-24 22:55N 37°29' E 023°45'3 6.8
2017-May-24 22:30N 37°26' E 023°44'3 6.6
2017-May-24 22:00N 37°24' E 023°41'3 6.5
2017-May-24 21:30N 37°21' E 023°39'3 6.6
2017-May-24 21:00N 37°18' E 023°37'3 6.8
2017-May-24 20:30N 37°16' E 023°34'3 6.6
2017-May-24 20:00N 37°13' E 023°32'3 6.6
2017-May-24 19:30N 37°10' E 023°29'  
2017-May-19 22:56N 37°39' E 015°18'2 5.7
2017-May-19 22:30N 37°41' E 015°18'3 5.6
2017-May-19 21:58N 37°44' E 015°18'4 5.8
2017-May-19 21:22N 37°48' E 015°18'2 5.0
2017-May-19 20:57N 37°50' E 015°17'0 0.0
2017-May-19 10:16N 37°50' E 015°17'3 8.1
2017-May-19 09:52N 37°52' E 015°20'410.4
2017-May-19 09:30N 37°55' E 015°24'510.6
2017-May-19 09:00N 37°59' E 015°27'611.4
2017-May-19 08:30N 38°04' E 015°31'510.3
2017-May-19 08:00N 38°09' E 015°34'3 6.3
2017-May-19 07:29N 38°12' E 015°34'0 0.2
2017-May-19 06:59N 38°12' E 015°33'0 0.0
2017-May-19 06:29N 38°12' E 015°33'1 1.4
2017-May-19 06:00N 38°12' E 015°34'1 2.8
2017-May-19 05:30N 38°12' E 015°36'2 4.2
2017-May-19 05:00N 38°14' E 015°36'2 4.8
2017-May-19 04:30N 38°15' E 015°38'3 5.7
2017-May-19 04:00N 38°18' E 015°40'3 5.8
2017-May-19 03:30N 38°20' E 015°38'3 5.7
2017-May-19 03:00N 38°23' E 015°36'3 5.8
2017-May-19 02:30N 38°25' E 015°35'3 5.9
2017-May-19 02:00N 38°28' E 015°33'3 6.0
2017-May-19 01:30N 38°31' E 015°31'3 5.8
2017-May-19 01:00N 38°33' E 015°29'3 5.8
2017-May-19 00:30N 38°36' E 015°27'3 6.2
2017-May-19 00:00N 38°39' E 015°25'4 6.8
2017-May-18 23:28N 38°42' E 015°23'3 6.4
2017-May-18 22:59N 38°44' E 015°21'3 6.3
2017-May-18 22:30N 38°47' E 015°19'3 5.7
2017-May-18 21:58N 38°50' E 015°17'2 5.3
2017-May-18 21:30N 38°50' E 015°14'15 4.9
2017-May-18 18:21N 38°39' E 014°60'4 9.9
2017-May-18 17:54N 38°35' E 014°60'4 9.8
2017-May-18 17:28N 38°31' E 014°60'3 2.4
2017-May-18 16:10N 38°28' E 014°58'0 0.1
2017-May-18 15:58N 38°28' E 014°58'0 0.0
2017-May-18 14:28N 38°28' E 014°58'0 0.0
2017-May-18 13:19N 38°28' E 014°58'0 0.0
2017-May-18 12:43N 38°28' E 014°58'0 0.1
2017-May-18 10:39N 38°28' E 014°58'1 5.2
2017-May-18 10:27N 38°27' E 014°59'6 3.0
2017-May-18 08:24N 38°33' E 014°55'3 7.2
2017-May-18 07:56N 38°36' E 014°54'36 5.4
2017-May-18 01:09N 38°18' E 014°13'5 5.6
2017-May-18 00:20N 38°14' E 014°10'2 5.5
2017-May-18 00:00N 38°12' E 014°09'3 5.2
2017-May-17 23:20N 38°10' E 014°06'2 5.6
2017-May-17 23:00N 38°08' E 014°05'3 5.7
2017-May-17 22:30N 38°06' E 014°04'3 5.8
2017-May-17 21:58N 38°03' E 014°01'1 0.1
2017-May-17 16:37N 38°03' E 014°01'0 0.0
2017-May-17 13:52N 38°03' E 014°01'0 0.0
2017-May-17 13:22N 38°03' E 014°01'0 0.0
2017-May-17 12:55N 38°03' E 014°01'0 0.0
2017-May-17 12:22N 38°03' E 014°01'0 0.0
2017-May-17 11:52N 38°03' E 014°01'0 0.0
2017-May-17 11:28N 38°03' E 014°01'0 0.1
2017-May-17 11:00N 38°03' E 014°01'2 4.6
2017-May-17 10:30N 38°04' E 013°59'3 5.5
2017-May-17 09:59N 38°06' E 013°56'1 1.2
2017-May-17 09:30N 38°06' E 013°55'1 1.3
2017-May-17 09:00N 38°06' E 013°54'1 1.3
2017-May-17 08:30N 38°06' E 013°54'1 1.5
2017-May-17 08:00N 38°07' E 013°53'1 1.8
2017-May-17 07:30N 38°07' E 013°52'1 1.6
2017-May-17 07:00N 38°07' E 013°51'1 1.5
2017-May-17 06:30N 38°08' E 013°50'1 1.1
2017-May-17 06:00N 38°08' E 013°50'2 3.6
2017-May-17 05:30N 38°09' E 013°48'3 6.3
2017-May-17 05:00N 38°11' E 013°44'3 6.4
2017-May-17 04:30N 38°13' E 013°41'3 6.5
2017-May-17 04:00N 38°15' E 013°38'3 5.3
2017-May-17 03:30N 38°16' E 013°35'1 2.4
2017-May-17 03:00N 38°16' E 013°33'3 6.0
2017-May-17 02:30N 38°17' E 013°30'3 6.0
2017-May-17 02:00N 38°17' E 013°26'3 5.9
2017-May-17 01:30N 38°18' E 013°22'3 5.8
2017-May-17 01:00N 38°18' E 013°19'3 5.9
2017-May-17 00:30N 38°18' E 013°15'3 6.2
2017-May-17 00:00N 38°19' E 013°11'3 6.8
2017-May-16 23:30N 38°19' E 013°07'3 6.8
2017-May-16 23:00N 38°19' E 013°02'4 6.6
2017-May-16 22:27N 38°19' E 012°58'3 6.5
2017-May-16 21:58N 38°18' E 012°54'17 5.1
2017-May-16 18:32N 38°10' E 012°34'2 5.8
2017-May-16 18:08N 38°08' E 012°32'1 7.2
2017-May-16 18:00N 38°07' E 012°32'3 7.0
2017-May-16 17:30N 38°05' E 012°29'3 6.7
2017-May-16 17:00N 38°01' E 012°28'2 3.7
2017-May-16 16:30N 38°01' E 012°30'0 0.0
2017-May-16 07:58N 38°01' E 012°31'0 0.0
2017-May-16 07:28N 38°01' E 012°31'0 0.0
2017-May-16 06:49N 38°01' E 012°31'0 0.0
2017-May-16 06:30N 38°01' E 012°31'0 0.1
2017-May-16 06:00N 38°01' E 012°31'1 2.7
2017-May-16 05:30N 38°00' E 012°29'3 6.3
2017-May-16 05:00N 38°02' E 012°25'3 6.0
2017-May-16 04:30N 38°02' E 012°21'3 6.0
2017-May-16 04:00N 38°02' E 012°18'  
Track history (hours):
 
Tides and Currents Weather Stations Pressure Air Temp Water Temp Dewpoint Dewpoint Depression Visibility Wind Speed Wind Dir Waves Ship Positions

Sea Cloud

Ship's website: http://www.seacloud.com/en/the-ships/sea-cloud.html

Last reported at 2017-May-25 18:52 UTC. Time now 2017-May-28 08:32 UTC.
Position N 37°19' E 023°39'.

Length 110 m; draft 5.3 m.

Type: Ship. MMSI: 256084000.

Date/timePositionNaut miles runAvg speedWind from/ knotsBaromVisibWave heightAir tempDewpointWater temp
2017-May-25 18:52N 37°19' E 023°39'410.4
2017-May-25 18:30N 37°23' E 023°40'510.3
2017-May-25 18:01N 37°28' E 023°41'5 9.6
2017-May-25 17:30N 37°33' E 023°41'5 9.6
2017-May-25 17:01N 37°37' E 023°42'5 9.3
2017-May-25 16:30N 37°42' E 023°41'5 9.4
2017-May-25 16:00N 37°46' E 023°38'5 9.3
2017-May-25 15:30N 37°50' E 023°37'5 9.3
2017-May-25 15:01N 37°55' E 023°36'2 3.6
2017-May-25 14:28N 37°56' E 023°38'0 0.0
2017-May-25 13:28N 37°56' E 023°38'0 0.0
2017-May-25 12:58N 37°56' E 023°38'0 0.0
2017-May-25 12:28N 37°56' E 023°38'0 0.0
2017-May-25 11:58N 37°56' E 023°38'0 0.0
2017-May-25 11:28N 37°56' E 023°38'0 0.0
2017-May-25 10:58N 37°56' E 023°38'0 0.0
2017-May-25 10:28N 37°56' E 023°38'0 0.0
2017-May-25 09:56N 37°56' E 023°38'0 0.0
2017-May-25 09:29N 37°56' E 023°38'0 0.0
2017-May-25 08:59N 37°56' E 023°38'0 0.0
2017-May-25 08:29N 37°56' E 023°38'0 0.0
2017-May-25 07:58N 37°56' E 023°38'0 0.0
2017-May-25 07:29N 37°56' E 023°38'0 0.0
2017-May-25 06:59N 37°56' E 023°38'0 0.0
2017-May-25 06:30N 37°56' E 023°38'0 0.0
2017-May-25 05:59N 37°56' E 023°38'0 0.0
2017-May-25 05:29N 37°56' E 023°38'0 0.0
2017-May-25 04:59N 37°56' E 023°38'0 0.0
2017-May-25 04:29N 37°56' E 023°38'0 0.0
2017-May-25 04:00N 37°56' E 023°38'2 3.1
2017-May-25 03:30N 37°55' E 023°37'2 3.8
2017-May-25 03:00N 37°53' E 023°37'2 4.5
2017-May-25 02:30N 37°52' E 023°39'3 6.3
2017-May-25 02:00N 37°49' E 023°41'3 6.8
2017-May-25 01:30N 37°46' E 023°42'3 6.4
2017-May-25 01:00N 37°43' E 023°44'3 6.7
2017-May-25 00:30N 37°40' E 023°46'3 6.8
2017-May-25 00:00N 37°36' E 023°46'3 6.8
2017-May-24 23:30N 37°33' E 023°46'4 6.7
2017-May-24 22:55N 37°29' E 023°45'3 6.8
2017-May-24 22:30N 37°26' E 023°44'3 6.6
2017-May-24 22:00N 37°24' E 023°41'3 6.5
2017-May-24 21:30N 37°21' E 023°39'3 6.6
2017-May-24 21:00N 37°18' E 023°37'3 6.8
2017-May-24 20:30N 37°16' E 023°34'3 6.6
2017-May-24 20:00N 37°13' E 023°32'3 6.6
2017-May-24 19:30N 37°10' E 023°29'  
2017-May-19 22:56N 37°39' E 015°18'2 5.7
2017-May-19 22:30N 37°41' E 015°18'3 5.6
2017-May-19 21:58N 37°44' E 015°18'4 5.8
2017-May-19 21:22N 37°48' E 015°18'2 5.0
2017-May-19 20:57N 37°50' E 015°17'0 0.0
2017-May-19 10:16N 37°50' E 015°17'3 8.1
2017-May-19 09:52N 37°52' E 015°20'410.4
2017-May-19 09:30N 37°55' E 015°24'510.6
2017-May-19 09:00N 37°59' E 015°27'611.4
2017-May-19 08:30N 38°04' E 015°31'510.3
2017-May-19 08:00N 38°09' E 015°34'3 6.3
2017-May-19 07:29N 38°12' E 015°34'0 0.2
2017-May-19 06:59N 38°12' E 015°33'0 0.0
2017-May-19 06:29N 38°12' E 015°33'1 1.4
2017-May-19 06:00N 38°12' E 015°34'1 2.8
2017-May-19 05:30N 38°12' E 015°36'2 4.2
2017-May-19 05:00N 38°14' E 015°36'2 4.8
2017-May-19 04:30N 38°15' E 015°38'3 5.7
2017-May-19 04:00N 38°18' E 015°40'3 5.8
2017-May-19 03:30N 38°20' E 015°38'3 5.7
2017-May-19 03:00N 38°23' E 015°36'3 5.8
2017-May-19 02:30N 38°25' E 015°35'3 5.9
2017-May-19 02:00N 38°28' E 015°33'3 6.0
2017-May-19 01:30N 38°31' E 015°31'3 5.8
2017-May-19 01:00N 38°33' E 015°29'3 5.8
2017-May-19 00:30N 38°36' E 015°27'3 6.2
2017-May-19 00:00N 38°39' E 015°25'4 6.8
2017-May-18 23:28N 38°42' E 015°23'3 6.4
2017-May-18 22:59N 38°44' E 015°21'3 6.3
2017-May-18 22:30N 38°47' E 015°19'3 5.7
2017-May-18 21:58N 38°50' E 015°17'2 5.3
2017-May-18 21:30N 38°50' E 015°14'15 4.9
2017-May-18 18:21N 38°39' E 014°60'4 9.9
2017-May-18 17:54N 38°35' E 014°60'4 9.8
2017-May-18 17:28N 38°31' E 014°60'3 2.4
2017-May-18 16:10N 38°28' E 014°58'0 0.1
2017-May-18 15:58N 38°28' E 014°58'0 0.0
2017-May-18 14:28N 38°28' E 014°58'0 0.0
2017-May-18 13:19N 38°28' E 014°58'0 0.0
2017-May-18 12:43N 38°28' E 014°58'0 0.1
2017-May-18 10:39N 38°28' E 014°58'1 5.2
2017-May-18 10:27N 38°27' E 014°59'6 3.0
2017-May-18 08:24N 38°33' E 014°55'3 7.2
2017-May-18 07:56N 38°36' E 014°54'36 5.4
2017-May-18 01:09N 38°18' E 014°13'5 5.6
2017-May-18 00:20N 38°14' E 014°10'2 5.5
2017-May-18 00:00N 38°12' E 014°09'3 5.2
2017-May-17 23:20N 38°10' E 014°06'2 5.6
2017-May-17 23:00N 38°08' E 014°05'3 5.7
2017-May-17 22:30N 38°06' E 014°04'3 5.8
2017-May-17 21:58N 38°03' E 014°01'1 0.1
2017-May-17 16:37N 38°03' E 014°01'0 0.0
2017-May-17 13:52N 38°03' E 014°01'0 0.0
2017-May-17 13:22N 38°03' E 014°01'0 0.0
2017-May-17 12:55N 38°03' E 014°01'0 0.0
2017-May-17 12:22N 38°03' E 014°01'0 0.0
2017-May-17 11:52N 38°03' E 014°01'0 0.0
2017-May-17 11:28N 38°03' E 014°01'0 0.1
2017-May-17 11:00N 38°03' E 014°01'2 4.6
2017-May-17 10:30N 38°04' E 013°59'3 5.5
2017-May-17 09:59N 38°06' E 013°56'1 1.2
2017-May-17 09:30N 38°06' E 013°55'1 1.3
2017-May-17 09:00N 38°06' E 013°54'1 1.3
2017-May-17 08:30N 38°06' E 013°54'1 1.5
2017-May-17 08:00N 38°07' E 013°53'1 1.8
2017-May-17 07:30N 38°07' E 013°52'1 1.6
2017-May-17 07:00N 38°07' E 013°51'1 1.5
2017-May-17 06:30N 38°08' E 013°50'1 1.1
2017-May-17 06:00N 38°08' E 013°50'2 3.6
2017-May-17 05:30N 38°09' E 013°48'3 6.3
2017-May-17 05:00N 38°11' E 013°44'3 6.4
2017-May-17 04:30N 38°13' E 013°41'3 6.5
2017-May-17 04:00N 38°15' E 013°38'3 5.3
2017-May-17 03:30N 38°16' E 013°35'1 2.4
2017-May-17 03:00N 38°16' E 013°33'3 6.0
2017-May-17 02:30N 38°17' E 013°30'3 6.0
2017-May-17 02:00N 38°17' E 013°26'3 5.9
2017-May-17 01:30N 38°18' E 013°22'3 5.8
2017-May-17 01:00N 38°18' E 013°19'3 5.9
2017-May-17 00:30N 38°18' E 013°15'3 6.2
2017-May-17 00:00N 38°19' E 013°11'3 6.8
2017-May-16 23:30N 38°19' E 013°07'3 6.8
2017-May-16 23:00N 38°19' E 013°02'4 6.6
2017-May-16 22:27N 38°19' E 012°58'3 6.5
2017-May-16 21:58N 38°18' E 012°54'17 5.1
2017-May-16 18:32N 38°10' E 012°34'2 5.8
2017-May-16 18:08N 38°08' E 012°32'1 7.2
2017-May-16 18:00N 38°07' E 012°32'3 7.0
2017-May-16 17:30N 38°05' E 012°29'3 6.7
2017-May-16 17:00N 38°01' E 012°28'2 3.7
2017-May-16 16:30N 38°01' E 012°30'0 0.0
2017-May-16 07:58N 38°01' E 012°31'0 0.0
2017-May-16 07:28N 38°01' E 012°31'0 0.0
2017-May-16 06:49N 38°01' E 012°31'0 0.0
2017-May-16 06:30N 38°01' E 012°31'0 0.1
2017-May-16 06:00N 38°01' E 012°31'1 2.7
2017-May-16 05:30N 38°00' E 012°29'3 6.3
2017-May-16 05:00N 38°02' E 012°25'3 6.0
2017-May-16 04:30N 38°02' E 012°21'3 6.0
2017-May-16 04:00N 38°02' E 012°18'  

Dump ship's entire track history